sensor_id;sensor_type;location;lat;lon;timestamp;P1;durP1;ratioP1;P2;durP2;ratioP2
64643;SDS011;51056;50.330;7.914;2023-07-02T00:01:57;12.18;;;1.45;;
64643;SDS011;51056;50.330;7.914;2023-07-02T00:05:00;5.32;;;1.55;;
64643;SDS011;51056;50.330;7.914;2023-07-02T00:08:03;2.92;;;1.33;;
64643;SDS011;51056;50.330;7.914;2023-07-02T00:11:06;6.15;;;1.83;;
64643;SDS011;51056;50.330;7.914;2023-07-02T00:14:10;6.55;;;1.48;;
64643;SDS011;51056;50.330;7.914;2023-07-02T00:17:13;5.95;;;1.90;;
64643;SDS011;51056;50.330;7.914;2023-07-02T00:20:16;5.65;;;2.13;;
64643;SDS011;51056;50.330;7.914;2023-07-02T00:23:19;5.80;;;1.70;;
64643;SDS011;51056;50.330;7.914;2023-07-02T00:26:24;7.50;;;1.90;;
64643;SDS011;51056;50.330;7.914;2023-07-02T00:29:28;6.38;;;1.85;;
64643;SDS011;51056;50.330;7.914;2023-07-02T00:32:31;10.15;;;1.80;;
64643;SDS011;51056;50.330;7.914;2023-07-02T00:35:34;4.88;;;1.60;;
64643;SDS011;51056;50.330;7.914;2023-07-02T00:38:38;6.28;;;1.85;;
64643;SDS011;51056;50.330;7.914;2023-07-02T00:41:41;7.00;;;2.13;;
64643;SDS011;51056;50.330;7.914;2023-07-02T00:44:45;4.07;;;1.60;;
64643;SDS011;51056;50.330;7.914;2023-07-02T00:47:49;8.00;;;2.05;;
64643;SDS011;51056;50.330;7.914;2023-07-02T00:50:52;4.72;;;1.60;;
64643;SDS011;51056;50.330;7.914;2023-07-02T00:53:56;5.95;;;2.13;;
64643;SDS011;51056;50.330;7.914;2023-07-02T00:56:59;4.45;;;1.30;;
64643;SDS011;51056;50.330;7.914;2023-07-02T01:00:06;8.90;;;1.85;;
64643;SDS011;51056;50.330;7.914;2023-07-02T01:03:11;6.28;;;1.73;;
64643;SDS011;51056;50.330;7.914;2023-07-02T01:06:14;7.97;;;1.90;;
64643;SDS011;51056;50.330;7.914;2023-07-02T01:09:18;6.30;;;1.70;;
64643;SDS011;51056;50.330;7.914;2023-07-02T01:12:21;8.13;;;2.00;;
64643;SDS011;51056;50.330;7.914;2023-07-02T01:15:25;5.35;;;1.83;;
64643;SDS011;51056;50.330;7.914;2023-07-02T01:18:30;6.55;;;2.03;;
64643;SDS011;51056;50.330;7.914;2023-07-02T01:21:33;5.20;;;2.22;;
64643;SDS011;51056;50.330;7.914;2023-07-02T01:24:38;9.50;;;2.00;;
64643;SDS011;51056;50.330;7.914;2023-07-02T01:27:42;8.77;;;1.80;;
64643;SDS011;51056;50.330;7.914;2023-07-02T01:30:45;6.30;;;2.13;;
64643;SDS011;51056;50.330;7.914;2023-07-02T01:33:48;3.67;;;1.30;;
64643;SDS011;51056;50.330;7.914;2023-07-02T01:36:52;9.05;;;1.90;;
64643;SDS011;51056;50.330;7.914;2023-07-02T01:39:56;8.15;;;1.85;;
64643;SDS011;51056;50.330;7.914;2023-07-02T01:42:59;6.22;;;1.42;;
64643;SDS011;51056;50.330;7.914;2023-07-02T01:46:02;4.53;;;1.80;;
64643;SDS011;51056;50.330;7.914;2023-07-02T01:49:06;4.57;;;1.70;;
64643;SDS011;51056;50.330;7.914;2023-07-02T01:52:09;6.22;;;2.33;;
64643;SDS011;51056;50.330;7.914;2023-07-02T01:55:12;7.22;;;1.80;;
64643;SDS011;51056;50.330;7.914;2023-07-02T01:58:16;9.52;;;1.88;;
64643;SDS011;51056;50.330;7.914;2023-07-02T02:01:19;4.85;;;1.70;;
64643;SDS011;51056;50.330;7.914;2023-07-02T02:04:22;7.22;;;1.65;;
64643;SDS011;51056;50.330;7.914;2023-07-02T02:07:26;8.63;;;1.60;;
64643;SDS011;51056;50.330;7.914;2023-07-02T02:10:29;7.07;;;2.00;;
64643;SDS011;51056;50.330;7.914;2023-07-02T02:13:32;5.40;;;1.90;;
64643;SDS011;51056;50.330;7.914;2023-07-02T02:16:36;12.68;;;1.88;;
64643;SDS011;51056;50.330;7.914;2023-07-02T02:19:39;8.40;;;2.08;;
64643;SDS011;51056;50.330;7.914;2023-07-02T02:22:42;6.28;;;2.30;;
64643;SDS011;51056;50.330;7.914;2023-07-02T02:25:46;6.18;;;2.10;;
64643;SDS011;51056;50.330;7.914;2023-07-02T02:28:49;4.28;;;2.13;;
64643;SDS011;51056;50.330;7.914;2023-07-02T02:31:52;5.68;;;2.28;;
64643;SDS011;51056;50.330;7.914;2023-07-02T02:34:57;10.18;;;3.10;;
64643;SDS011;51056;50.330;7.914;2023-07-02T02:38:02;12.40;;;2.80;;
64643;SDS011;51056;50.330;7.914;2023-07-02T02:41:06;11.40;;;3.75;;
64643;SDS011;51056;50.330;7.914;2023-07-02T02:44:14;7.55;;;3.17;;
64643;SDS011;51056;50.330;7.914;2023-07-02T02:47:18;9.55;;;3.80;;
64643;SDS011;51056;50.330;7.914;2023-07-02T02:50:21;8.40;;;4.07;;
64643;SDS011;51056;50.330;7.914;2023-07-02T02:53:25;9.70;;;3.92;;
64643;SDS011;51056;50.330;7.914;2023-07-02T02:56:28;8.15;;;3.88;;
64643;SDS011;51056;50.330;7.914;2023-07-02T02:59:31;8.70;;;4.15;;
64643;SDS011;51056;50.330;7.914;2023-07-02T03:02:35;11.85;;;5.25;;
64643;SDS011;51056;50.330;7.914;2023-07-02T03:05:39;10.18;;;4.10;;
64643;SDS011;51056;50.330;7.914;2023-07-02T03:08:42;8.80;;;4.03;;
64643;SDS011;51056;50.330;7.914;2023-07-02T03:11:46;11.55;;;4.07;;
64643;SDS011;51056;50.330;7.914;2023-07-02T03:14:50;11.95;;;4.10;;
64643;SDS011;51056;50.330;7.914;2023-07-02T03:17:57;11.88;;;4.75;;
64643;SDS011;51056;50.330;7.914;2023-07-02T03:21:00;10.25;;;4.90;;
64643;SDS011;51056;50.330;7.914;2023-07-02T03:24:03;12.38;;;4.85;;
64643;SDS011;51056;50.330;7.914;2023-07-02T03:27:07;11.15;;;5.25;;
64643;SDS011;51056;50.330;7.914;2023-07-02T03:30:10;8.73;;;4.60;;
64643;SDS011;51056;50.330;7.914;2023-07-02T03:33:14;12.60;;;5.15;;
64643;SDS011;51056;50.330;7.914;2023-07-02T03:36:17;8.82;;;4.57;;
64643;SDS011;51056;50.330;7.914;2023-07-02T03:42:23;13.18;;;5.43;;
64643;SDS011;51056;50.330;7.914;2023-07-02T03:45:26;11.02;;;4.95;;
64643;SDS011;51056;50.330;7.914;2023-07-02T03:48:30;13.23;;;6.35;;
64643;SDS011;51056;50.330;7.914;2023-07-02T03:54:35;9.57;;;5.97;;
64643;SDS011;51056;50.330;7.914;2023-07-02T03:57:39;9.85;;;5.90;;
64643;SDS011;51056;50.330;7.914;2023-07-02T04:00:42;11.50;;;6.00;;
64643;SDS011;51056;50.330;7.914;2023-07-02T04:03:50;13.73;;;6.90;;
64643;SDS011;51056;50.330;7.914;2023-07-02T04:06:54;12.95;;;7.05;;
64643;SDS011;51056;50.330;7.914;2023-07-02T04:09:57;12.93;;;5.97;;
64643;SDS011;51056;50.330;7.914;2023-07-02T04:13:01;11.35;;;6.63;;
64643;SDS011;51056;50.330;7.914;2023-07-02T04:22:10;12.82;;;6.97;;
64643;SDS011;51056;50.330;7.914;2023-07-02T04:25:15;15.88;;;6.78;;
64643;SDS011;51056;50.330;7.914;2023-07-02T04:28:18;17.73;;;7.32;;
64643;SDS011;51056;50.330;7.914;2023-07-02T04:31:22;12.95;;;7.38;;
64643;SDS011;51056;50.330;7.914;2023-07-02T04:34:25;11.00;;;7.63;;
64643;SDS011;51056;50.330;7.914;2023-07-02T04:37:28;12.75;;;6.95;;
64643;SDS011;51056;50.330;7.914;2023-07-02T04:40:32;13.93;;;8.52;;
64643;SDS011;51056;50.330;7.914;2023-07-02T04:43:35;14.57;;;7.80;;
64643;SDS011;51056;50.330;7.914;2023-07-02T04:46:38;17.55;;;8.20;;
64643;SDS011;51056;50.330;7.914;2023-07-02T04:49:42;11.85;;;8.00;;
64643;SDS011;51056;50.330;7.914;2023-07-02T04:52:45;14.48;;;8.35;;
64643;SDS011;51056;50.330;7.914;2023-07-02T04:55:48;14.55;;;7.45;;
64643;SDS011;51056;50.330;7.914;2023-07-02T04:58:52;13.35;;;9.00;;
64643;SDS011;51056;50.330;7.914;2023-07-02T05:01:55;15.23;;;8.75;;
64643;SDS011;51056;50.330;7.914;2023-07-02T05:04:58;15.55;;;8.57;;
64643;SDS011;51056;50.330;7.914;2023-07-02T05:08:02;12.98;;;8.40;;
64643;SDS011;51056;50.330;7.914;2023-07-02T05:11:07;17.85;;;8.65;;
64643;SDS011;51056;50.330;7.914;2023-07-02T05:14:10;13.48;;;8.25;;
64643;SDS011;51056;50.330;7.914;2023-07-02T05:17:17;13.85;;;8.80;;
64643;SDS011;51056;50.330;7.914;2023-07-02T05:20:20;17.05;;;8.82;;
64643;SDS011;51056;50.330;7.914;2023-07-02T05:23:24;16.08;;;10.05;;
64643;SDS011;51056;50.330;7.914;2023-07-02T05:26:27;18.73;;;9.65;;
64643;SDS011;51056;50.330;7.914;2023-07-02T05:29:30;17.75;;;10.15;;
64643;SDS011;51056;50.330;7.914;2023-07-02T05:32:34;17.85;;;10.32;;
64643;SDS011;51056;50.330;7.914;2023-07-02T05:35:37;18.73;;;9.43;;
64643;SDS011;51056;50.330;7.914;2023-07-02T05:38:40;16.60;;;10.27;;
64643;SDS011;51056;50.330;7.914;2023-07-02T05:41:44;19.85;;;10.68;;
64643;SDS011;51056;50.330;7.914;2023-07-02T05:44:47;17.42;;;9.95;;
64643;SDS011;51056;50.330;7.914;2023-07-02T05:47:50;16.75;;;10.93;;
64643;SDS011;51056;50.330;7.914;2023-07-02T05:50:54;17.48;;;10.35;;
64643;SDS011;51056;50.330;7.914;2023-07-02T05:53:58;19.13;;;10.85;;
64643;SDS011;51056;50.330;7.914;2023-07-02T05:57:01;21.77;;;10.73;;
64643;SDS011;51056;50.330;7.914;2023-07-02T06:00:06;16.38;;;10.27;;
64643;SDS011;51056;50.330;7.914;2023-07-02T06:03:18;18.58;;;11.15;;
64643;SDS011;51056;50.330;7.914;2023-07-02T06:06:24;18.13;;;11.75;;
64643;SDS011;51056;50.330;7.914;2023-07-02T06:09:27;15.23;;;11.18;;
64643;SDS011;51056;50.330;7.914;2023-07-02T06:12:31;14.57;;;10.73;;
64643;SDS011;51056;50.330;7.914;2023-07-02T06:15:34;19.08;;;11.82;;
64643;SDS011;51056;50.330;7.914;2023-07-02T06:18:37;25.33;;;13.40;;
64643;SDS011;51056;50.330;7.914;2023-07-02T06:21:40;20.90;;;13.30;;
64643;SDS011;51056;50.330;7.914;2023-07-02T06:24:44;19.60;;;11.50;;
64643;SDS011;51056;50.330;7.914;2023-07-02T06:27:47;20.65;;;12.40;;
64643;SDS011;51056;50.330;7.914;2023-07-02T06:30:50;20.35;;;11.98;;
64643;SDS011;51056;50.330;7.914;2023-07-02T06:33:54;19.00;;;11.48;;
64643;SDS011;51056;50.330;7.914;2023-07-02T06:36:57;17.70;;;12.02;;
64643;SDS011;51056;50.330;7.914;2023-07-02T06:40:00;18.52;;;12.07;;
64643;SDS011;51056;50.330;7.914;2023-07-02T06:43:04;24.50;;;12.82;;
64643;SDS011;51056;50.330;7.914;2023-07-02T06:46:09;22.15;;;13.57;;
64643;SDS011;51056;50.330;7.914;2023-07-02T06:52:41;21.00;;;13.23;;
64643;SDS011;51056;50.330;7.914;2023-07-02T06:55:44;21.92;;;13.18;;
64643;SDS011;51056;50.330;7.914;2023-07-02T06:58:47;19.30;;;12.93;;
64643;SDS011;51056;50.330;7.914;2023-07-02T07:01:51;23.23;;;13.07;;
64643;SDS011;51056;50.330;7.914;2023-07-02T07:04:54;18.00;;;12.32;;
64643;SDS011;51056;50.330;7.914;2023-07-02T07:07:58;21.63;;;12.00;;
64643;SDS011;51056;50.330;7.914;2023-07-02T07:11:03;18.17;;;12.07;;
64643;SDS011;51056;50.330;7.914;2023-07-02T07:14:06;24.75;;;13.40;;
64643;SDS011;51056;50.330;7.914;2023-07-02T07:17:10;18.70;;;12.88;;
64643;SDS011;51056;50.330;7.914;2023-07-02T07:20:13;20.90;;;12.90;;
64643;SDS011;51056;50.330;7.914;2023-07-02T07:23:17;25.40;;;15.10;;
64643;SDS011;51056;50.330;7.914;2023-07-02T07:26:20;20.20;;;13.23;;
64643;SDS011;51056;50.330;7.914;2023-07-02T07:29:23;24.35;;;14.70;;
64643;SDS011;51056;50.330;7.914;2023-07-02T07:32:28;21.08;;;14.02;;
64643;SDS011;51056;50.330;7.914;2023-07-02T07:35:31;18.92;;;13.20;;
64643;SDS011;51056;50.330;7.914;2023-07-02T07:38:35;22.55;;;14.07;;
64643;SDS011;51056;50.330;7.914;2023-07-02T07:41:39;21.85;;;13.63;;
64643;SDS011;51056;50.330;7.914;2023-07-02T07:44:44;18.98;;;12.23;;
64643;SDS011;51056;50.330;7.914;2023-07-02T07:47:48;19.17;;;13.68;;
64643;SDS011;51056;50.330;7.914;2023-07-02T07:50:51;19.35;;;14.00;;
64643;SDS011;51056;50.330;7.914;2023-07-02T07:53:56;23.13;;;14.20;;
64643;SDS011;51056;50.330;7.914;2023-07-02T07:56:59;19.83;;;12.88;;
64643;SDS011;51056;50.330;7.914;2023-07-02T08:00:03;22.98;;;12.90;;
64643;SDS011;51056;50.330;7.914;2023-07-02T08:03:19;22.75;;;13.07;;
64643;SDS011;51056;50.330;7.914;2023-07-02T08:06:26;21.77;;;13.10;;
64643;SDS011;51056;50.330;7.914;2023-07-02T08:09:30;27.67;;;14.10;;
64643;SDS011;51056;50.330;7.914;2023-07-02T08:12:33;21.65;;;13.18;;
64643;SDS011;51056;50.330;7.914;2023-07-02T08:15:38;19.35;;;14.07;;
64643;SDS011;51056;50.330;7.914;2023-07-02T08:18:43;20.13;;;13.00;;
64643;SDS011;51056;50.330;7.914;2023-07-02T08:21:47;22.88;;;14.82;;
64643;SDS011;51056;50.330;7.914;2023-07-02T08:24:50;19.67;;;12.63;;
64643;SDS011;51056;50.330;7.914;2023-07-02T08:27:53;23.08;;;13.05;;
64643;SDS011;51056;50.330;7.914;2023-07-02T08:34:37;19.60;;;12.07;;
64643;SDS011;51056;50.330;7.914;2023-07-02T08:37:41;20.23;;;13.40;;
64643;SDS011;51056;50.330;7.914;2023-07-02T08:40:44;18.92;;;12.80;;
64643;SDS011;51056;50.330;7.914;2023-07-02T08:43:47;21.00;;;12.40;;
64643;SDS011;51056;50.330;7.914;2023-07-02T08:46:51;16.85;;;12.38;;
64643;SDS011;51056;50.330;7.914;2023-07-02T08:49:58;19.55;;;13.27;;
64643;SDS011;51056;50.330;7.914;2023-07-02T08:53:01;20.77;;;13.02;;
64643;SDS011;51056;50.330;7.914;2023-07-02T08:56:04;20.17;;;12.50;;
64643;SDS011;51056;50.330;7.914;2023-07-02T08:59:08;19.58;;;12.63;;
64643;SDS011;51056;50.330;7.914;2023-07-02T09:02:12;22.13;;;12.35;;
64643;SDS011;51056;50.330;7.914;2023-07-02T09:05:15;19.50;;;12.77;;
64643;SDS011;51056;50.330;7.914;2023-07-02T09:08:22;18.27;;;12.50;;
64643;SDS011;51056;50.330;7.914;2023-07-02T09:11:27;22.30;;;12.98;;
64643;SDS011;51056;50.330;7.914;2023-07-02T09:14:30;20.25;;;14.07;;
64643;SDS011;51056;50.330;7.914;2023-07-02T09:17:35;23.25;;;12.20;;
64643;SDS011;51056;50.330;7.914;2023-07-02T09:20:40;22.25;;;14.55;;
64643;SDS011;51056;50.330;7.914;2023-07-02T09:23:43;19.48;;;12.05;;
64643;SDS011;51056;50.330;7.914;2023-07-02T09:26:51;19.40;;;12.30;;
64643;SDS011;51056;50.330;7.914;2023-07-02T09:29:56;15.07;;;11.52;;
64643;SDS011;51056;50.330;7.914;2023-07-02T09:33:08;16.15;;;12.15;;
64643;SDS011;51056;50.330;7.914;2023-07-02T09:36:12;17.73;;;11.57;;
64643;SDS011;51056;50.330;7.914;2023-07-02T09:39:19;17.92;;;12.80;;
64643;SDS011;51056;50.330;7.914;2023-07-02T09:42:25;18.38;;;11.82;;
64643;SDS011;51056;50.330;7.914;2023-07-02T09:45:28;17.02;;;11.48;;
64643;SDS011;51056;50.330;7.914;2023-07-02T09:48:32;25.08;;;12.32;;
64643;SDS011;51056;50.330;7.914;2023-07-02T09:51:38;18.05;;;11.93;;
64643;SDS011;51056;50.330;7.914;2023-07-02T09:54:44;18.67;;;12.30;;
64643;SDS011;51056;50.330;7.914;2023-07-02T09:57:48;18.77;;;11.63;;
64643;SDS011;51056;50.330;7.914;2023-07-02T10:00:51;17.88;;;11.73;;
64643;SDS011;51056;50.330;7.914;2023-07-02T10:03:55;17.92;;;11.63;;
64643;SDS011;51056;50.330;7.914;2023-07-02T10:06:58;18.38;;;11.43;;
64643;SDS011;51056;50.330;7.914;2023-07-02T10:10:05;15.35;;;10.00;;
64643;SDS011;51056;50.330;7.914;2023-07-02T10:13:09;16.05;;;11.32;;
64643;SDS011;51056;50.330;7.914;2023-07-02T10:16:13;15.63;;;10.35;;
64643;SDS011;51056;50.330;7.914;2023-07-02T10:19:20;16.45;;;10.80;;
64643;SDS011;51056;50.330;7.914;2023-07-02T10:22:26;14.73;;;10.30;;
64643;SDS011;51056;50.330;7.914;2023-07-02T10:25:31;18.42;;;11.85;;
64643;SDS011;51056;50.330;7.914;2023-07-02T10:28:37;16.45;;;10.82;;
64643;SDS011;51056;50.330;7.914;2023-07-02T10:31:47;17.55;;;11.90;;
64643;SDS011;51056;50.330;7.914;2023-07-02T10:34:53;16.45;;;10.85;;
64643;SDS011;51056;50.330;7.914;2023-07-02T10:37:56;15.55;;;9.98;;
64643;SDS011;51056;50.330;7.914;2023-07-02T10:41:00;17.30;;;10.93;;
64643;SDS011;51056;50.330;7.914;2023-07-02T10:44:08;17.58;;;10.95;;
64643;SDS011;51056;50.330;7.914;2023-07-02T10:47:11;17.17;;;11.25;;
64643;SDS011;51056;50.330;7.914;2023-07-02T10:50:15;14.27;;;10.35;;
64643;SDS011;51056;50.330;7.914;2023-07-02T10:53:24;16.85;;;10.70;;
64643;SDS011;51056;50.330;7.914;2023-07-02T10:56:28;16.67;;;11.20;;
64643;SDS011;51056;50.330;7.914;2023-07-02T10:59:31;16.50;;;11.90;;
64643;SDS011;51056;50.330;7.914;2023-07-02T11:02:35;16.95;;;11.00;;
64643;SDS011;51056;50.330;7.914;2023-07-02T11:05:42;18.73;;;11.82;;
64643;SDS011;51056;50.330;7.914;2023-07-02T11:08:48;15.93;;;10.73;;
64643;SDS011;51056;50.330;7.914;2023-07-02T11:11:51;17.17;;;11.40;;
64643;SDS011;51056;50.330;7.914;2023-07-02T11:14:55;15.07;;;10.95;;
64643;SDS011;51056;50.330;7.914;2023-07-02T11:18:17;21.98;;;12.88;;
64643;SDS011;51056;50.330;7.914;2023-07-02T11:21:25;17.55;;;11.27;;
64643;SDS011;51056;50.330;7.914;2023-07-02T11:24:35;16.17;;;11.25;;
64643;SDS011;51056;50.330;7.914;2023-07-02T11:27:39;17.60;;;10.70;;
64643;SDS011;51056;50.330;7.914;2023-07-02T11:30:46;15.75;;;10.52;;
64643;SDS011;51056;50.330;7.914;2023-07-02T11:33:58;18.27;;;10.68;;
64643;SDS011;51056;50.330;7.914;2023-07-02T11:37:01;15.90;;;10.63;;
64643;SDS011;51056;50.330;7.914;2023-07-02T11:40:05;15.18;;;9.68;;
64643;SDS011;51056;50.330;7.914;2023-07-02T11:43:09;14.55;;;10.43;;
64643;SDS011;51056;50.330;7.914;2023-07-02T11:46:13;16.00;;;10.30;;
64643;SDS011;51056;50.330;7.914;2023-07-02T11:49:16;17.60;;;10.82;;
64643;SDS011;51056;50.330;7.914;2023-07-02T11:52:20;20.92;;;11.07;;
64643;SDS011;51056;50.330;7.914;2023-07-02T11:55:25;13.45;;;9.60;;
64643;SDS011;51056;50.330;7.914;2023-07-02T11:58:29;16.02;;;10.95;;
64643;SDS011;51056;50.330;7.914;2023-07-02T12:01:33;16.92;;;10.85;;
64643;SDS011;51056;50.330;7.914;2023-07-02T12:04:37;16.80;;;11.38;;
64643;SDS011;51056;50.330;7.914;2023-07-02T12:07:42;17.33;;;11.32;;
64643;SDS011;51056;50.330;7.914;2023-07-02T12:10:45;18.50;;;11.40;;
64643;SDS011;51056;50.330;7.914;2023-07-02T12:13:48;19.15;;;11.40;;
64643;SDS011;51056;50.330;7.914;2023-07-02T12:16:52;17.70;;;12.18;;
64643;SDS011;51056;50.330;7.914;2023-07-02T12:19:56;18.63;;;11.60;;
64643;SDS011;51056;50.330;7.914;2023-07-02T12:23:00;13.88;;;10.07;;
64643;SDS011;51056;50.330;7.914;2023-07-02T12:29:37;16.55;;;12.18;;
64643;SDS011;51056;50.330;7.914;2023-07-02T12:36:34;16.35;;;11.38;;
64643;SDS011;51056;50.330;7.914;2023-07-02T12:39:37;17.42;;;11.98;;
64643;SDS011;51056;50.330;7.914;2023-07-02T12:42:41;19.17;;;12.07;;
64643;SDS011;51056;50.330;7.914;2023-07-02T12:45:45;16.50;;;11.70;;
64643;SDS011;51056;50.330;7.914;2023-07-02T12:48:50;18.45;;;12.00;;
64643;SDS011;51056;50.330;7.914;2023-07-02T12:55:28;22.88;;;12.27;;
64643;SDS011;51056;50.330;7.914;2023-07-02T12:58:31;19.27;;;12.07;;
64643;SDS011;51056;50.330;7.914;2023-07-02T13:01:35;17.48;;;12.18;;
64643;SDS011;51056;50.330;7.914;2023-07-02T13:04:38;19.00;;;12.85;;
64643;SDS011;51056;50.330;7.914;2023-07-02T13:07:42;20.75;;;12.32;;
64643;SDS011;51056;50.330;7.914;2023-07-02T13:10:47;22.35;;;13.75;;
64643;SDS011;51056;50.330;7.914;2023-07-02T13:13:50;22.33;;;14.05;;
64643;SDS011;51056;50.330;7.914;2023-07-02T13:16:53;19.67;;;11.55;;
64643;SDS011;51056;50.330;7.914;2023-07-02T13:19:57;18.15;;;12.73;;
64643;SDS011;51056;50.330;7.914;2023-07-02T13:23:00;18.05;;;12.68;;
64643;SDS011;51056;50.330;7.914;2023-07-02T13:26:04;23.77;;;13.57;;
64643;SDS011;51056;50.330;7.914;2023-07-02T13:29:09;19.38;;;11.80;;
64643;SDS011;51056;50.330;7.914;2023-07-02T13:32:12;20.05;;;13.75;;
64643;SDS011;51056;50.330;7.914;2023-07-02T13:35:16;21.85;;;13.32;;
64643;SDS011;51056;50.330;7.914;2023-07-02T13:38:19;18.65;;;12.93;;
64643;SDS011;51056;50.330;7.914;2023-07-02T13:41:24;18.85;;;12.98;;
64643;SDS011;51056;50.330;7.914;2023-07-02T13:44:27;17.45;;;12.63;;
64643;SDS011;51056;50.330;7.914;2023-07-02T13:47:31;22.77;;;13.73;;
64643;SDS011;51056;50.330;7.914;2023-07-02T13:50:35;21.38;;;14.38;;
64643;SDS011;51056;50.330;7.914;2023-07-02T13:53:40;19.80;;;13.23;;
64643;SDS011;51056;50.330;7.914;2023-07-02T13:56:44;19.58;;;13.05;;
64643;SDS011;51056;50.330;7.914;2023-07-02T13:59:48;22.33;;;13.50;;
64643;SDS011;51056;50.330;7.914;2023-07-02T14:02:56;20.67;;;13.50;;
64643;SDS011;51056;50.330;7.914;2023-07-02T14:05:59;20.92;;;14.48;;
64643;SDS011;51056;50.330;7.914;2023-07-02T14:09:03;23.38;;;13.70;;
64643;SDS011;51056;50.330;7.914;2023-07-02T14:12:06;20.20;;;13.77;;
64643;SDS011;51056;50.330;7.914;2023-07-02T14:15:11;20.60;;;13.25;;
64643;SDS011;51056;50.330;7.914;2023-07-02T14:18:14;19.33;;;14.15;;
64643;SDS011;51056;50.330;7.914;2023-07-02T14:21:19;21.23;;;14.50;;
64643;SDS011;51056;50.330;7.914;2023-07-02T14:24:23;21.95;;;13.75;;
64643;SDS011;51056;50.330;7.914;2023-07-02T14:27:26;17.40;;;13.15;;
64643;SDS011;51056;50.330;7.914;2023-07-02T14:30:29;18.92;;;12.68;;
64643;SDS011;51056;50.330;7.914;2023-07-02T14:33:33;23.27;;;14.30;;
64643;SDS011;51056;50.330;7.914;2023-07-02T14:36:38;17.30;;;12.60;;
64643;SDS011;51056;50.330;7.914;2023-07-02T14:39:44;19.90;;;12.85;;
64643;SDS011;51056;50.330;7.914;2023-07-02T14:42:48;17.55;;;12.05;;
64643;SDS011;51056;50.330;7.914;2023-07-02T14:45:53;20.48;;;12.73;;
64643;SDS011;51056;50.330;7.914;2023-07-02T14:48:57;20.77;;;13.25;;
64643;SDS011;51056;50.330;7.914;2023-07-02T14:52:00;19.45;;;13.65;;
64643;SDS011;51056;50.330;7.914;2023-07-02T14:55:03;18.55;;;13.60;;
64643;SDS011;51056;50.330;7.914;2023-07-02T14:58:08;19.40;;;13.52;;
64643;SDS011;51056;50.330;7.914;2023-07-02T15:01:15;20.77;;;13.98;;
64643;SDS011;51056;50.330;7.914;2023-07-02T15:04:24;20.23;;;13.75;;
64643;SDS011;51056;50.330;7.914;2023-07-02T15:07:27;20.75;;;13.43;;
64643;SDS011;51056;50.330;7.914;2023-07-02T15:10:31;20.00;;;14.02;;
64643;SDS011;51056;50.330;7.914;2023-07-02T15:13:34;21.50;;;13.77;;
64643;SDS011;51056;50.330;7.914;2023-07-02T15:16:37;20.42;;;13.50;;
64643;SDS011;51056;50.330;7.914;2023-07-02T15:19:41;21.05;;;12.68;;
64643;SDS011;51056;50.330;7.914;2023-07-02T15:22:44;20.92;;;13.88;;
64643;SDS011;51056;50.330;7.914;2023-07-02T15:26:05;20.92;;;12.48;;
64643;SDS011;51056;50.330;7.914;2023-07-02T15:29:14;20.75;;;13.10;;
64643;SDS011;51056;50.330;7.914;2023-07-02T15:32:17;21.55;;;13.20;;
64643;SDS011;51056;50.330;7.914;2023-07-02T15:35:21;16.10;;;11.80;;
64643;SDS011;51056;50.330;7.914;2023-07-02T15:38:27;14.98;;;12.00;;
64643;SDS011;51056;50.330;7.914;2023-07-02T15:41:30;18.77;;;12.05;;
64643;SDS011;51056;50.330;7.914;2023-07-02T15:44:37;19.42;;;12.20;;
64643;SDS011;51056;50.330;7.914;2023-07-02T15:47:43;21.52;;;11.95;;
64643;SDS011;51056;50.330;7.914;2023-07-02T15:50:47;16.70;;;11.50;;
64643;SDS011;51056;50.330;7.914;2023-07-02T15:53:52;17.10;;;11.40;;
64643;SDS011;51056;50.330;7.914;2023-07-02T15:56:58;15.40;;;12.15;;
64643;SDS011;51056;50.330;7.914;2023-07-02T16:00:02;20.20;;;12.75;;
64643;SDS011;51056;50.330;7.914;2023-07-02T16:03:16;17.00;;;11.43;;
64643;SDS011;51056;50.330;7.914;2023-07-02T16:06:19;15.98;;;11.75;;
64643;SDS011;51056;50.330;7.914;2023-07-02T16:09:22;17.13;;;12.27;;
64643;SDS011;51056;50.330;7.914;2023-07-02T16:12:26;16.58;;;12.48;;
64643;SDS011;51056;50.330;7.914;2023-07-02T16:15:29;19.92;;;12.55;;
64643;SDS011;51056;50.330;7.914;2023-07-02T16:18:33;17.48;;;12.10;;
64643;SDS011;51056;50.330;7.914;2023-07-02T16:21:36;16.13;;;11.57;;
64643;SDS011;51056;50.330;7.914;2023-07-02T16:24:39;18.80;;;12.52;;
64643;SDS011;51056;50.330;7.914;2023-07-02T16:27:46;17.73;;;12.07;;
64643;SDS011;51056;50.330;7.914;2023-07-02T16:30:52;17.63;;;12.18;;
64643;SDS011;51056;50.330;7.914;2023-07-02T16:34:00;18.23;;;12.15;;
64643;SDS011;51056;50.330;7.914;2023-07-02T16:37:05;22.10;;;11.88;;
64643;SDS011;51056;50.330;7.914;2023-07-02T16:40:10;20.80;;;12.82;;
64643;SDS011;51056;50.330;7.914;2023-07-02T16:43:14;19.67;;;11.27;;
64643;SDS011;51056;50.330;7.914;2023-07-02T16:46:18;17.23;;;11.48;;
64643;SDS011;51056;50.330;7.914;2023-07-02T16:49:23;16.70;;;11.77;;
64643;SDS011;51056;50.330;7.914;2023-07-02T16:52:28;15.13;;;10.95;;
64643;SDS011;51056;50.330;7.914;2023-07-02T16:55:34;15.18;;;11.02;;
64643;SDS011;51056;50.330;7.914;2023-07-02T16:58:39;19.60;;;11.98;;
64643;SDS011;51056;50.330;7.914;2023-07-02T17:01:46;16.75;;;10.93;;
64643;SDS011;51056;50.330;7.914;2023-07-02T17:04:52;19.70;;;12.18;;
64643;SDS011;51056;50.330;7.914;2023-07-02T17:07:57;18.85;;;11.48;;
64643;SDS011;51056;50.330;7.914;2023-07-02T17:11:00;19.73;;;11.82;;
64643;SDS011;51056;50.330;7.914;2023-07-02T17:14:03;20.00;;;11.88;;
64643;SDS011;51056;50.330;7.914;2023-07-02T17:17:11;17.83;;;11.93;;
64643;SDS011;51056;50.330;7.914;2023-07-02T17:20:16;17.92;;;12.05;;
64643;SDS011;51056;50.330;7.914;2023-07-02T17:23:21;17.65;;;11.73;;
64643;SDS011;51056;50.330;7.914;2023-07-02T17:26:25;17.80;;;11.90;;
64643;SDS011;51056;50.330;7.914;2023-07-02T17:29:28;17.38;;;12.30;;
64643;SDS011;51056;50.330;7.914;2023-07-02T17:32:34;17.20;;;11.30;;
64643;SDS011;51056;50.330;7.914;2023-07-02T17:35:41;17.95;;;11.45;;
64643;SDS011;51056;50.330;7.914;2023-07-02T17:38:45;17.17;;;11.73;;
64643;SDS011;51056;50.330;7.914;2023-07-02T17:41:49;18.10;;;11.43;;
64643;SDS011;51056;50.330;7.914;2023-07-02T17:44:54;21.52;;;12.65;;
64643;SDS011;51056;50.330;7.914;2023-07-02T17:48:02;21.52;;;12.18;;
64643;SDS011;51056;50.330;7.914;2023-07-02T17:51:07;17.42;;;11.50;;
64643;SDS011;51056;50.330;7.914;2023-07-02T17:54:13;14.35;;;10.60;;
64643;SDS011;51056;50.330;7.914;2023-07-02T17:57:20;15.55;;;11.63;;
64643;SDS011;51056;50.330;7.914;2023-07-02T18:00:24;18.33;;;11.82;;
64643;SDS011;51056;50.330;7.914;2023-07-02T18:03:28;17.15;;;11.40;;
64643;SDS011;51056;50.330;7.914;2023-07-02T18:06:31;18.85;;;12.98;;
64643;SDS011;51056;50.330;7.914;2023-07-02T18:09:35;17.38;;;11.75;;
64643;SDS011;51056;50.330;7.914;2023-07-02T18:12:41;17.38;;;11.70;;
64643;SDS011;51056;50.330;7.914;2023-07-02T18:15:44;22.83;;;13.63;;
64643;SDS011;51056;50.330;7.914;2023-07-02T18:18:48;18.30;;;12.55;;
64643;SDS011;51056;50.330;7.914;2023-07-02T18:21:56;21.05;;;11.60;;
64643;SDS011;51056;50.330;7.914;2023-07-02T18:25:04;21.07;;;11.67;;
64643;SDS011;51056;50.330;7.914;2023-07-02T18:28:09;18.40;;;11.77;;
64643;SDS011;51056;50.330;7.914;2023-07-02T18:31:15;16.73;;;10.55;;
64643;SDS011;51056;50.330;7.914;2023-07-02T18:34:18;17.17;;;12.05;;
64643;SDS011;51056;50.330;7.914;2023-07-02T18:37:23;17.60;;;11.07;;